Time;durP1;ratioP1;P1;durP2;ratioP2;P2;SDS_P1;SDS_P2;PMS_P1;PMS_P2;Temp;Humidity;BMP_temperature;BMP_pressure;BME280_temperature;BME280_humidity;BME280_pressure;Samples;Min_cycle;Max_cycle;Signal;HPM_P1;HPM_P2
2024/01/16 00:02:03;;;;;;;;;70.67;55.00;;;;;;;;4979569;28;62848;-81
2024/01/16 00:04:29;;;;;;;;;84.33;60.33;;;;;;;;5008848;27;62032;-81
2024/01/16 00:06:55;;;;;;;;;77.67;60.67;;;;;;;;4999809;27;61911;-81
2024/01/16 00:09:20;;;;;;;;;83.67;61.00;;;;;;;;4998027;27;61913;-82
2024/01/16 00:11:45;;;;;;;;;84.00;62.33;;;;;;;;4999024;27;61716;-81
2024/01/16 00:14:10;;;;;;;;;76.67;60.00;;;;;;;;4999757;28;62088;-81
2024/01/16 00:16:44;;;;;;;;;82.67;59.67;;;;;;;;4997621;28;61718;-81
2024/01/16 00:19:13;;;;;;;;;72.00;58.67;;;;;;;;4994276;28;62018;-81
2024/01/16 00:21:39;;;;;;;;;80.33;58.67;;;;;;;;4979154;28;61950;-81
2024/01/16 00:24:04;;;;;;;;;75.33;57.67;;;;;;;;4978500;28;61916;-81
2024/01/16 00:26:29;;;;;;;;;78.00;63.00;;;;;;;;4987413;28;61717;-81
2024/01/16 00:28:55;;;;;;;;;78.00;62.00;;;;;;;;4998478;28;62137;-81
2024/01/16 00:31:20;;;;;;;;;83.33;60.67;;;;;;;;4997237;28;64014;-81
2024/01/16 00:33:45;;;;;;;;;77.00;58.33;;;;;;;;4999072;27;62158;-81
2024/01/16 00:36:10;;;;;;;;;81.33;60.33;;;;;;;;4999276;27;61893;-81
2024/01/16 00:38:35;;;;;;;;;85.00;61.00;;;;;;;;5000806;28;62139;-81
2024/01/16 00:41:01;;;;;;;;;78.33;61.00;;;;;;;;4998600;28;61703;-81
2024/01/16 00:43:26;;;;;;;;;87.33;62.33;;;;;;;;4999254;28;62142;-81
2024/01/16 00:45:51;;;;;;;;;88.00;66.00;;;;;;;;4998733;27;61803;-81
2024/01/16 00:48:17;;;;;;;;;85.67;64.67;;;;;;;;4999584;28;61702;-81
2024/01/16 00:50:43;;;;;;;;;97.67;68.33;;;;;;;;4998628;28;62611;-81
2024/01/16 00:53:08;;;;;;;;;95.33;69.33;;;;;;;;4998922;27;61690;-81
2024/01/16 00:55:33;;;;;;;;;92.33;66.33;;;;;;;;4999082;28;62180;-81
2024/01/16 00:57:58;;;;;;;;;87.00;66.00;;;;;;;;4999148;27;61699;-81
2024/01/16 01:00:23;;;;;;;;;93.00;69.00;;;;;;;;4998026;28;61953;-81
2024/01/16 01:02:49;;;;;;;;;93.00;69.00;;;;;;;;4998580;27;61971;-81
2024/01/16 01:05:14;;;;;;;;;91.67;66.33;;;;;;;;4997309;28;61838;-81
2024/01/16 01:07:39;;;;;;;;;90.67;68.33;;;;;;;;5000567;27;61754;-81
2024/01/16 01:10:05;;;;;;;;;89.33;67.67;;;;;;;;5000832;27;63154;-81
2024/01/16 01:12:30;;;;;;;;;94.00;67.33;;;;;;;;5002088;27;61828;-81
2024/01/16 01:14:55;;;;;;;;;86.67;66.33;;;;;;;;5001701;27;61889;-81
2024/01/16 01:17:21;;;;;;;;;91.33;68.33;;;;;;;;5001930;27;61904;-81
2024/01/16 01:19:46;;;;;;;;;91.00;70.33;;;;;;;;4990960;28;63599;-81
2024/01/16 01:22:11;;;;;;;;;86.00;68.67;;;;;;;;4981923;28;61740;-81
2024/01/16 01:24:36;;;;;;;;;93.33;67.67;;;;;;;;4982122;28;61773;-81
2024/01/16 01:27:02;;;;;;;;;90.33;68.33;;;;;;;;4980815;28;61855;-81
2024/01/16 01:29:27;;;;;;;;;90.33;67.67;;;;;;;;4980008;28;64732;-81
2024/01/16 01:31:52;;;;;;;;;94.67;70.00;;;;;;;;4981974;28;61765;-81
2024/01/16 01:34:17;;;;;;;;;93.00;66.33;;;;;;;;4980406;28;62064;-81
2024/01/16 01:36:43;;;;;;;;;96.00;72.00;;;;;;;;4982114;28;61782;-81
2024/01/16 01:39:08;;;;;;;;;89.67;67.33;;;;;;;;4981061;28;63012;-81
2024/01/16 01:41:33;;;;;;;;;92.33;67.67;;;;;;;;4982048;28;61866;-81
2024/01/16 01:43:59;;;;;;;;;88.00;67.67;;;;;;;;4981491;28;61684;-81
2024/01/16 01:46:24;;;;;;;;;91.00;68.33;;;;;;;;4982230;28;61924;-81
2024/01/16 01:48:50;;;;;;;;;94.67;72.33;;;;;;;;4981554;28;62277;-81
2024/01/16 01:51:17;;;;;;;;;92.00;72.00;;;;;;;;4980324;28;61794;-81
2024/01/16 01:53:43;;;;;;;;;86.33;66.00;;;;;;;;4981862;28;61870;-81
2024/01/16 01:56:11;;;;;;;;;93.67;69.33;;;;;;;;5013423;27;61835;-81
2024/01/16 01:58:38;;;;;;;;;94.00;71.33;;;;;;;;4980895;28;62056;-81
2024/01/16 02:01:03;;;;;;;;;92.00;68.67;;;;;;;;4981719;28;61945;-81
2024/01/16 02:03:29;;;;;;;;;90.00;69.00;;;;;;;;4981855;28;61913;-81
2024/01/16 02:05:55;;;;;;;;;94.33;68.33;;;;;;;;4981857;28;61774;-81
2024/01/16 02:08:21;;;;;;;;;86.67;64.67;;;;;;;;4980696;28;61754;-81
2024/01/16 02:10:47;;;;;;;;;91.33;66.67;;;;;;;;4981782;28;61794;-81
2024/01/16 02:13:12;;;;;;;;;91.33;69.00;;;;;;;;4981349;28;61890;-81
2024/01/16 02:15:41;;;;;;;;;82.67;64.33;;;;;;;;4980538;28;61818;-81
2024/01/16 02:18:06;;;;;;;;;89.33;66.00;;;;;;;;4979872;28;62122;-81
2024/01/16 02:20:31;;;;;;;;;88.00;63.33;;;;;;;;4981285;28;61790;-81
2024/01/16 02:23:00;;;;;;;;;84.67;61.00;;;;;;;;4980207;28;61887;-81
2024/01/16 02:25:26;;;;;;;;;90.67;66.00;;;;;;;;4981086;28;61698;-81
2024/01/16 02:27:51;;;;;;;;;74.33;55.67;;;;;;;;4979205;28;63574;-81
2024/01/16 02:30:23;;;;;;;;;83.67;59.33;;;;;;;;4981364;28;61687;-81
2024/01/16 02:32:48;;;;;;;;;74.33;60.00;;;;;;;;4980417;28;61812;-81
2024/01/16 02:35:15;;;;;;;;;81.67;62.33;;;;;;;;4980981;28;61711;-81
2024/01/16 02:37:40;;;;;;;;;85.33;66.00;;;;;;;;4980745;28;62813;-81
2024/01/16 02:40:06;;;;;;;;;73.67;59.33;;;;;;;;4980884;28;61856;-81
2024/01/16 02:42:34;;;;;;;;;70.67;57.00;;;;;;;;4981147;28;61652;-81
2024/01/16 02:44:59;;;;;;;;;83.33;56.33;;;;;;;;4980195;28;62073;-81
2024/01/16 02:47:24;;;;;;;;;69.67;52.67;;;;;;;;4980309;28;61874;-81
2024/01/16 02:49:50;;;;;;;;;70.00;54.00;;;;;;;;4980054;28;61832;-81
2024/01/16 02:52:15;;;;;;;;;65.33;46.00;;;;;;;;4979787;28;61868;-81
2024/01/16 02:54:41;;;;;;;;;70.67;53.33;;;;;;;;4979647;28;61789;-81
2024/01/16 02:57:06;;;;;;;;;69.67;52.67;;;;;;;;4978631;28;63863;-81
2024/01/16 02:59:31;;;;;;;;;71.00;54.00;;;;;;;;4979511;28;62148;-81
2024/01/16 03:01:56;;;;;;;;;70.67;57.00;;;;;;;;4979795;28;61752;-81
2024/01/16 03:04:22;;;;;;;;;66.67;52.67;;;;;;;;4980639;28;61750;-81
2024/01/16 03:06:48;;;;;;;;;63.33;50.67;;;;;;;;4980195;28;61888;-81
2024/01/16 03:09:13;;;;;;;;;64.00;46.00;;;;;;;;4980604;28;61743;-81
2024/01/16 03:11:39;;;;;;;;;73.67;52.67;;;;;;;;4980927;28;61953;-81
2024/01/16 03:14:05;;;;;;;;;71.67;54.67;;;;;;;;4979898;28;62067;-81
2024/01/16 03:16:30;;;;;;;;;68.67;50.00;;;;;;;;4978670;28;63802;-81
2024/01/16 03:18:55;;;;;;;;;72.67;56.33;;;;;;;;4980762;28;62000;-81
2024/01/16 03:21:20;;;;;;;;;67.67;52.00;;;;;;;;4980596;28;61922;-81
2024/01/16 03:23:45;;;;;;;;;78.33;52.00;;;;;;;;4980720;28;61681;-81
2024/01/16 03:26:14;;;;;;;;;77.33;54.33;;;;;;;;4979710;28;62634;-81
2024/01/16 03:28:39;;;;;;;;;71.67;52.00;;;;;;;;4979141;28;61926;-81
2024/01/16 03:31:05;;;;;;;;;65.67;54.00;;;;;;;;4981048;28;61834;-81
2024/01/16 03:33:30;;;;;;;;;73.00;51.00;;;;;;;;4980209;28;61750;-80
2024/01/16 03:35:55;;;;;;;;;60.67;49.00;;;;;;;;4979816;28;61926;-81
2024/01/16 03:38:20;;;;;;;;;70.67;51.00;;;;;;;;4980445;28;61819;-81
2024/01/16 03:40:46;;;;;;;;;70.67;56.33;;;;;;;;4978815;28;61993;-81
2024/01/16 03:43:11;;;;;;;;;67.67;51.33;;;;;;;;4980749;28;61770;-80
2024/01/16 03:45:36;;;;;;;;;62.67;50.67;;;;;;;;4979801;28;62787;-81
2024/01/16 03:48:02;;;;;;;;;62.33;49.00;;;;;;;;4980410;28;61765;-81
2024/01/16 03:50:28;;;;;;;;;62.33;44.33;;;;;;;;4980680;28;61785;-81
2024/01/16 03:52:53;;;;;;;;;72.00;54.00;;;;;;;;4979185;28;62074;-81
2024/01/16 03:55:18;;;;;;;;;72.00;51.33;;;;;;;;4979164;28;61924;-81
2024/01/16 03:57:43;;;;;;;;;66.33;48.33;;;;;;;;4980114;28;61888;-81
2024/01/16 04:00:12;;;;;;;;;57.33;44.33;;;;;;;;4980374;28;61770;-81
2024/01/16 04:02:37;;;;;;;;;69.00;51.67;;;;;;;;4980203;28;61797;-81
2024/01/16 04:05:03;;;;;;;;;73.67;57.00;;;;;;;;4994834;27;62488;-81
2024/01/16 04:07:28;;;;;;;;;68.33;49.00;;;;;;;;4995189;28;62027;-81
2024/01/16 04:09:53;;;;;;;;;70.00;52.00;;;;;;;;4979582;28;62049;-81
2024/01/16 04:12:19;;;;;;;;;65.00;50.00;;;;;;;;4980669;28;61910;-81
2024/01/16 04:14:44;;;;;;;;;76.33;54.00;;;;;;;;4979224;28;62525;-81
2024/01/16 04:17:09;;;;;;;;;65.67;48.33;;;;;;;;4978934;28;62063;-81
2024/01/16 04:19:34;;;;;;;;;59.67;48.33;;;;;;;;4979842;28;61792;-81
2024/01/16 04:22:00;;;;;;;;;67.00;51.00;;;;;;;;4978638;28;61963;-81
2024/01/16 04:24:26;;;;;;;;;55.00;48.00;;;;;;;;4977460;28;63912;-81
2024/01/16 04:26:51;;;;;;;;;60.67;53.00;;;;;;;;4978245;28;62018;-81
2024/01/16 04:29:16;;;;;;;;;58.33;45.67;;;;;;;;4980299;28;61767;-81
2024/01/16 04:31:42;;;;;;;;;63.33;50.33;;;;;;;;4978642;28;62152;-81
2024/01/16 04:34:07;;;;;;;;;56.67;48.33;;;;;;;;4978790;28;61993;-81
2024/01/16 04:36:33;;;;;;;;;58.00;46.33;;;;;;;;4978444;28;61791;-81
2024/01/16 04:38:58;;;;;;;;;66.67;48.00;;;;;;;;4979041;28;61827;-81
2024/01/16 04:41:23;;;;;;;;;56.33;46.67;;;;;;;;4979151;28;62172;-81
2024/01/16 04:43:49;;;;;;;;;63.00;48.67;;;;;;;;4979115;28;61771;-81
2024/01/16 04:46:15;;;;;;;;;66.33;47.33;;;;;;;;4978227;28;61771;-81
2024/01/16 04:48:41;;;;;;;;;52.00;45.67;;;;;;;;4979724;28;61909;-81
2024/01/16 04:51:07;;;;;;;;;53.33;48.00;;;;;;;;4980003;28;62012;-81
2024/01/16 04:53:32;;;;;;;;;56.33;45.00;;;;;;;;4978187;28;61768;-81
2024/01/16 04:55:58;;;;;;;;;69.33;50.33;;;;;;;;4978081;28;61869;-81
2024/01/16 04:58:23;;;;;;;;;64.00;51.67;;;;;;;;4978149;28;61735;-81
2024/01/16 05:00:48;;;;;;;;;59.33;47.67;;;;;;;;4979499;28;61816;-81
2024/01/16 05:03:13;;;;;;;;;55.67;46.67;;;;;;;;5019261;28;63585;-81
2024/01/16 05:05:39;;;;;;;;;56.67;48.67;;;;;;;;5081397;27;61909;-81
2024/01/16 05:08:04;;;;;;;;;61.00;49.00;;;;;;;;5080239;28;61975;-81
2024/01/16 05:10:30;;;;;;;;;67.67;48.33;;;;;;;;5033559;27;62019;-81
2024/01/16 05:12:55;;;;;;;;;68.33;50.33;;;;;;;;4998145;28;62532;-81
2024/01/16 05:15:21;;;;;;;;;60.00;44.67;;;;;;;;4997570;28;61971;-81
2024/01/16 05:17:46;;;;;;;;;75.00;53.33;;;;;;;;4997529;27;61853;-81
2024/01/16 05:20:11;;;;;;;;;73.00;54.67;;;;;;;;4984996;28;62084;-81
2024/01/16 05:22:38;;;;;;;;;69.67;53.33;;;;;;;;4977938;28;62962;-81
2024/01/16 05:25:04;;;;;;;;;69.33;53.33;;;;;;;;4978940;28;61895;-81
2024/01/16 05:27:29;;;;;;;;;66.67;50.67;;;;;;;;4979134;28;61782;-81
2024/01/16 05:29:54;;;;;;;;;70.67;54.00;;;;;;;;4978904;28;61904;-81
2024/01/16 05:32:20;;;;;;;;;68.67;54.33;;;;;;;;4977132;28;64168;-81
2024/01/16 05:34:45;;;;;;;;;63.67;48.67;;;;;;;;4978161;28;61881;-81
2024/01/16 05:37:11;;;;;;;;;60.67;51.00;;;;;;;;4977534;28;62096;-81
2024/01/16 05:39:36;;;;;;;;;58.67;48.00;;;;;;;;4978684;28;62012;-81
2024/01/16 05:42:13;;;;;;;;;63.00;48.00;;;;;;;;4977990;28;62514;-81
2024/01/16 05:44:38;;;;;;;;;63.67;48.33;;;;;;;;4977447;28;61968;-81
2024/01/16 05:47:04;;;;;;;;;70.67;51.67;;;;;;;;4978659;28;61959;-81
2024/01/16 05:49:29;;;;;;;;;70.67;55.67;;;;;;;;4978402;28;61797;-81
2024/01/16 05:51:54;;;;;;;;;75.67;54.33;;;;;;;;4977896;28;61951;-81
2024/01/16 05:54:20;;;;;;;;;80.67;57.00;;;;;;;;4981085;28;61946;-81
2024/01/16 05:56:45;;;;;;;;;71.00;52.67;;;;;;;;4981844;28;61761;-82
2024/01/16 05:59:10;;;;;;;;;74.33;52.67;;;;;;;;4984552;28;61850;-81
2024/01/16 06:01:35;;;;;;;;;68.00;52.67;;;;;;;;5000966;27;61898;-79
2024/01/16 06:04:01;;;;;;;;;69.67;56.33;;;;;;;;4999008;28;61786;-83
2024/01/16 06:06:26;;;;;;;;;77.33;57.00;;;;;;;;4989760;27;62225;-79
2024/01/16 06:08:51;;;;;;;;;78.33;57.00;;;;;;;;4982258;28;61851;-79
2024/01/16 06:11:18;;;;;;;;;77.33;55.67;;;;;;;;4980971;28;61979;-81
2024/01/16 06:13:43;;;;;;;;;74.33;54.67;;;;;;;;4980404;28;61898;-82
2024/01/16 06:16:08;;;;;;;;;70.00;55.67;;;;;;;;4981277;28;61767;-80
2024/01/16 06:18:34;;;;;;;;;75.33;57.00;;;;;;;;4983953;28;61822;-81
2024/01/16 06:21:00;;;;;;;;;79.00;60.00;;;;;;;;4980707;28;62025;-81
2024/01/16 06:23:25;;;;;;;;;76.00;58.67;;;;;;;;4979772;28;62875;-80
2024/01/16 06:25:50;;;;;;;;;78.00;60.00;;;;;;;;4980138;28;62170;-81
2024/01/16 06:28:15;;;;;;;;;74.33;56.33;;;;;;;;4980292;28;61795;-79
2024/01/16 06:30:40;;;;;;;;;85.00;66.33;;;;;;;;4978837;28;63754;-80
2024/01/16 06:33:06;;;;;;;;;87.33;66.00;;;;;;;;4980047;28;62927;-80
2024/01/16 06:35:31;;;;;;;;;89.33;66.00;;;;;;;;4979883;28;61940;-80
2024/01/16 06:37:56;;;;;;;;;79.00;60.67;;;;;;;;4980251;28;61803;-83
2024/01/16 06:40:21;;;;;;;;;72.67;57.00;;;;;;;;4992371;27;61920;-82
2024/01/16 06:42:47;;;;;;;;;82.00;66.00;;;;;;;;4980880;28;62030;-83
2024/01/16 06:45:13;;;;;;;;;80.67;57.33;;;;;;;;4978663;28;62033;-84
2024/01/16 06:47:38;;;;;;;;;77.33;56.33;;;;;;;;4980001;28;62158;-84
2024/01/16 06:50:04;;;;;;;;;71.67;57.67;;;;;;;;4993711;28;64142;-83
2024/01/16 06:52:29;;;;;;;;;78.67;58.00;;;;;;;;4979904;28;61871;-85
2024/01/16 06:54:54;;;;;;;;;67.00;54.00;;;;;;;;5000105;27;62606;-86
2024/01/16 06:57:20;;;;;;;;;71.33;56.33;;;;;;;;4999772;28;61774;-86
2024/01/16 06:59:46;;;;;;;;;74.67;53.33;;;;;;;;4998855;28;61995;-85
2024/01/16 07:02:11;;;;;;;;;75.33;57.67;;;;;;;;4998058;28;61960;-85
2024/01/16 07:04:36;;;;;;;;;68.00;55.67;;;;;;;;4996041;27;61785;-86
2024/01/16 07:07:02;;;;;;;;;67.67;54.00;;;;;;;;4996877;27;62082;-86
2024/01/16 07:09:28;;;;;;;;;70.67;52.00;;;;;;;;4997355;27;62116;-86
2024/01/16 07:11:53;;;;;;;;;77.33;60.67;;;;;;;;4998605;28;62053;-84
2024/01/16 07:14:19;;;;;;;;;80.33;60.33;;;;;;;;4999055;27;61734;-85
2024/01/16 07:16:44;;;;;;;;;79.33;58.67;;;;;;;;4997608;28;61968;-85
2024/01/16 07:19:09;;;;;;;;;70.00;52.67;;;;;;;;4995142;27;63067;-85
2024/01/16 07:21:35;;;;;;;;;78.00;56.33;;;;;;;;4998685;27;62013;-86
2024/01/16 07:24:00;;;;;;;;;73.00;54.67;;;;;;;;4995496;27;62175;-85
2024/01/16 07:26:25;;;;;;;;;70.00;52.00;;;;;;;;4998688;27;61665;-85
2024/01/16 07:28:51;;;;;;;;;73.00;54.00;;;;;;;;4996746;28;63773;-85
2024/01/16 07:31:16;;;;;;;;;66.67;53.33;;;;;;;;4999031;27;61855;-91
2024/01/16 07:33:42;;;;;;;;;70.67;54.67;;;;;;;;5000251;27;61845;-91
2024/01/16 07:36:08;;;;;;;;;59.67;50.67;;;;;;;;5001780;27;61674;-91
2024/01/16 07:38:33;;;;;;;;;71.33;52.67;;;;;;;;5001352;27;62678;-92
2024/01/16 07:40:58;;;;;;;;;72.33;57.00;;;;;;;;5000600;28;61901;-91
2024/01/16 07:43:24;;;;;;;;;76.00;54.33;;;;;;;;4999273;28;61836;-93
2024/01/16 07:45:49;;;;;;;;;69.67;54.67;;;;;;;;4981068;28;61848;-92
2024/01/16 07:48:14;;;;;;;;;60.67;49.00;;;;;;;;4979139;28;63880;-93
2024/01/16 07:50:40;;;;;;;;;75.00;57.00;;;;;;;;4979153;28;61790;-92
2024/01/16 07:53:05;;;;;;;;;78.00;54.00;;;;;;;;4979528;28;62002;-93
2024/01/16 07:55:31;;;;;;;;;57.67;45.33;;;;;;;;4981238;28;61913;-92
2024/01/16 07:57:56;;;;;;;;;82.00;61.00;;;;;;;;4978974;28;63567;-91
2024/01/16 08:00:21;;;;;;;;;83.33;60.00;;;;;;;;4979977;28;62018;-91
2024/01/16 08:02:47;;;;;;;;;71.67;56.00;;;;;;;;4981083;28;61730;-92
2024/01/16 08:05:12;;;;;;;;;75.33;54.00;;;;;;;;4979416;28;61958;-83
2024/01/16 08:07:38;;;;;;;;;67.67;49.67;;;;;;;;4998981;27;62060;-80
2024/01/16 08:10:03;;;;;;;;;61.00;48.00;;;;;;;;4998344;28;61881;-81
2024/01/16 08:12:28;;;;;;;;;69.33;49.67;;;;;;;;4999696;27;61833;-82
2024/01/16 08:14:54;;;;;;;;;49.67;45.67;;;;;;;;4993976;27;61832;-82
2024/01/16 08:17:19;;;;;;;;;68.33;48.33;;;;;;;;4978478;28;62475;-82
2024/01/16 08:19:44;;;;;;;;;64.67;49.67;;;;;;;;4979400;28;62160;-81
2024/01/16 08:22:09;;;;;;;;;66.67;48.67;;;;;;;;4960376;28;61913;-83
2024/01/16 08:24:35;;;;;;;;;74.00;52.00;;;;;;;;4959823;28;62153;-82
2024/01/16 08:27:00;;;;;;;;;72.00;52.00;;;;;;;;4959943;28;61821;-82
2024/01/16 08:29:25;;;;;;;;;62.67;52.67;;;;;;;;4991744;28;62059;-83
2024/01/16 08:31:53;;;;;;;;;75.00;57.00;;;;;;;;4960477;28;62390;-83
2024/01/16 08:34:18;;;;;;;;;79.33;60.33;;;;;;;;4975277;28;62029;-82
2024/01/16 08:36:43;;;;;;;;;82.67;60.00;;;;;;;;4998470;27;61947;-83
2024/01/16 08:39:10;;;;;;;;;80.00;57.33;;;;;;;;4998749;27;61842;-82
2024/01/16 08:41:35;;;;;;;;;80.67;58.67;;;;;;;;4998282;28;61820;-83
2024/01/16 08:44:00;;;;;;;;;73.00;54.33;;;;;;;;4999033;28;61869;-82
2024/01/16 08:46:25;;;;;;;;;83.33;63.00;;;;;;;;4998892;27;62133;-82
2024/01/16 08:48:51;;;;;;;;;78.33;61.00;;;;;;;;4999011;27;62099;-82
2024/01/16 08:51:16;;;;;;;;;76.67;58.33;;;;;;;;4998036;28;62012;-83
2024/01/16 08:53:42;;;;;;;;;86.33;64.67;;;;;;;;4997730;28;61798;-83
2024/01/16 08:56:07;;;;;;;;;82.67;63.00;;;;;;;;4997210;28;63667;-83
2024/01/16 08:58:35;;;;;;;;;73.67;52.67;;;;;;;;4998673;27;61733;-83
2024/01/16 09:01:02;;;;;;;;;72.33;57.00;;;;;;;;4997683;28;62012;-82
2024/01/16 09:03:27;;;;;;;;;89.00;64.00;;;;;;;;4999191;28;61752;-82
2024/01/16 09:05:52;;;;;;;;;79.67;62.33;;;;;;;;4996243;28;63938;-83
2024/01/16 09:08:17;;;;;;;;;82.00;60.67;;;;;;;;4998914;28;61923;-83
2024/01/16 09:10:43;;;;;;;;;76.33;57.67;;;;;;;;4998671;27;61803;-83
2024/01/16 09:13:08;;;;;;;;;60.67;50.33;;;;;;;;4992077;28;61823;-82
2024/01/16 09:15:34;;;;;;;;;71.67;57.00;;;;;;;;4976472;28;64944;-82
2024/01/16 09:17:59;;;;;;;;;67.33;52.00;;;;;;;;4978208;28;61953;-82
2024/01/16 09:20:24;;;;;;;;;76.67;57.67;;;;;;;;4978551;28;61971;-82
2024/01/16 09:22:50;;;;;;;;;87.33;61.67;;;;;;;;4977176;28;62226;-83
2024/01/16 09:25:16;;;;;;;;;68.33;51.33;;;;;;;;4977379;28;62607;-83
2024/01/16 09:27:41;;;;;;;;;75.00;60.00;;;;;;;;4980138;28;61812;-83
2024/01/16 09:30:07;;;;;;;;;80.00;64.00;;;;;;;;4980596;28;62049;-82
2024/01/16 09:32:32;;;;;;;;;92.33;66.00;;;;;;;;4980727;28;61818;-83
2024/01/16 09:34:58;;;;;;;;;87.00;64.00;;;;;;;;4984543;28;62978;-82
2024/01/16 09:37:23;;;;;;;;;79.00;63.33;;;;;;;;4971662;28;62024;-84
2024/01/16 09:39:50;;;;;;;;;79.67;63.67;;;;;;;;5063343;28;61819;-84
2024/01/16 09:42:16;;;;;;;;;87.33;65.33;;;;;;;;5063270;27;62162;-81
2024/01/16 09:44:41;;;;;;;;;76.67;63.33;;;;;;;;4966062;28;63916;-84
2024/01/16 09:47:08;;;;;;;;;93.33;69.00;;;;;;;;4981156;28;61901;-83
2024/01/16 09:49:33;;;;;;;;;87.33;66.00;;;;;;;;4981468;28;62047;-84
2024/01/16 09:52:01;;;;;;;;;89.33;66.67;;;;;;;;4981127;28;62272;-84
2024/01/16 09:54:26;;;;;;;;;83.67;65.33;;;;;;;;4980469;28;64518;-84
2024/01/16 09:56:53;;;;;;;;;90.67;66.33;;;;;;;;4993897;28;61818;-82
2024/01/16 09:59:20;;;;;;;;;86.33;66.00;;;;;;;;5118460;27;61983;-83
2024/01/16 10:01:45;;;;;;;;;82.33;64.67;;;;;;;;5072366;28;61882;-83
2024/01/16 10:04:11;;;;;;;;;80.67;60.00;;;;;;;;4987555;28;64898;-83
2024/01/16 10:06:37;;;;;;;;;83.67;60.67;;;;;;;;4981000;28;61838;-83
2024/01/16 10:09:03;;;;;;;;;84.33;62.33;;;;;;;;4980078;28;61905;-83
2024/01/16 10:11:29;;;;;;;;;80.33;61.00;;;;;;;;4980119;28;61715;-83
2024/01/16 10:13:54;;;;;;;;;89.33;67.00;;;;;;;;4990656;28;63364;-83
2024/01/16 10:16:21;;;;;;;;;91.00;66.00;;;;;;;;4999690;28;62034;-84
2024/01/16 10:18:46;;;;;;;;;87.00;69.00;;;;;;;;4998761;28;61939;-83
2024/01/16 10:21:22;;;;;;;;;86.33;67.67;;;;;;;;4979079;28;62211;-83
2024/01/16 10:23:48;;;;;;;;;94.00;68.00;;;;;;;;4978968;28;65163;-83
2024/01/16 10:26:14;;;;;;;;;97.33;66.00;;;;;;;;4979397;28;61980;-83
2024/01/16 10:28:42;;;;;;;;;98.00;70.33;;;;;;;;4983860;28;61721;-83
2024/01/16 10:31:08;;;;;;;;;80.67;65.33;;;;;;;;4960349;28;62127;-83
2024/01/16 10:33:34;;;;;;;;;92.33;68.00;;;;;;;;4960948;28;61919;-83
2024/01/16 10:36:12;;;;;;;;;93.00;68.67;;;;;;;;4996079;27;61971;-82
2024/01/16 10:38:41;;;;;;;;;89.00;65.67;;;;;;;;4980150;28;61932;-82
2024/01/16 10:41:08;;;;;;;;;86.33;62.33;;;;;;;;4976271;28;62002;-83
2024/01/16 10:43:34;;;;;;;;;88.00;64.67;;;;;;;;4961146;28;61854;-83
2024/01/16 10:46:08;;;;;;;;;86.33;65.33;;;;;;;;4968699;28;61909;-81
2024/01/16 10:48:34;;;;;;;;;93.00;70.00;;;;;;;;5000332;28;61815;-81
2024/01/16 10:51:00;;;;;;;;;81.00;64.33;;;;;;;;5000429;28;61608;-80
2024/01/16 10:53:28;;;;;;;;;85.33;66.33;;;;;;;;4986725;28;62094;-81
2024/01/16 10:55:54;;;;;;;;;87.33;66.33;;;;;;;;4979978;28;61941;-81
2024/01/16 10:58:21;;;;;;;;;89.33;63.67;;;;;;;;4979316;28;61846;-81
2024/01/16 11:00:50;;;;;;;;;86.33;66.67;;;;;;;;4979797;28;61880;-80
2024/01/16 11:03:24;;;;;;;;;92.00;65.00;;;;;;;;4997361;27;62845;-81
2024/01/16 11:05:50;;;;;;;;;91.33;68.67;;;;;;;;4998192;28;61793;-80
2024/01/16 11:08:16;;;;;;;;;89.00;64.67;;;;;;;;4993183;27;61810;-79
2024/01/16 11:10:42;;;;;;;;;78.00;61.00;;;;;;;;4999003;28;61905;-80
2024/01/16 11:13:15;;;;;;;;;75.67;59.33;;;;;;;;4999509;28;63225;-80
2024/01/16 11:15:47;;;;;;;;;90.33;66.00;;;;;;;;4993782;28;62277;-80
2024/01/16 11:18:14;;;;;;;;;87.00;67.00;;;;;;;;4961063;28;61878;-81
2024/01/16 11:20:42;;;;;;;;;82.00;64.67;;;;;;;;4977066;28;62048;-80
2024/01/16 11:23:08;;;;;;;;;79.33;61.00;;;;;;;;4979349;28;61854;-80
2024/01/16 11:25:33;;;;;;;;;73.00;58.00;;;;;;;;4980035;28;61854;-80
2024/01/16 11:28:10;;;;;;;;;72.00;57.00;;;;;;;;4978486;28;61825;-80
2024/01/16 11:30:35;;;;;;;;;70.33;55.33;;;;;;;;4978521;28;61987;-80
2024/01/16 11:33:01;;;;;;;;;70.00;55.00;;;;;;;;4979255;28;61829;-80
2024/01/16 11:35:33;;;;;;;;;70.67;58.67;;;;;;;;4979225;28;61798;-81
2024/01/16 11:38:11;;;;;;;;;68.67;56.67;;;;;;;;4979621;28;62061;-80
2024/01/16 11:40:36;;;;;;;;;75.33;54.67;;;;;;;;4984755;28;61810;-81
2024/01/16 11:43:20;;;;;;;;;72.67;53.00;;;;;;;;4984201;28;61845;-80
2024/01/16 11:45:49;;;;;;;;;70.00;51.00;;;;;;;;4975899;28;62136;-80
2024/01/16 11:48:15;;;;;;;;;58.00;42.67;;;;;;;;4998330;28;61821;-80
2024/01/16 11:50:41;;;;;;;;;56.33;41.67;;;;;;;;4982117;28;61821;-79
2024/01/16 11:53:06;;;;;;;;;55.33;45.00;;;;;;;;4997408;28;64953;-80
2024/01/16 11:55:35;;;;;;;;;60.00;48.00;;;;;;;;4979950;28;61964;-80
2024/01/16 11:58:09;;;;;;;;;28.25;21.00;;;;;;;;4980126;28;61961;-81
2024/01/16 12:00:35;;;;;;;;;24.50;24.50;;;;;;;;4978461;28;61898;-80
2024/01/16 12:03:04;;;;;;;;;33.50;29.00;;;;;;;;4979573;28;61888;-80
2024/01/16 12:05:29;;;;;;;;;40.00;26.50;;;;;;;;4978703;28;61873;-80
2024/01/16 12:07:54;;;;;;;;;27.00;23.75;;;;;;;;4977395;28;61745;-80
2024/01/16 12:10:21;;;;;;;;;5.00;4.00;;;;;;;;4979502;28;61847;-81
2024/01/16 12:12:47;;;;;;;;;13.00;11.25;;;;;;;;4978497;28;61955;-81
2024/01/16 12:15:18;;;;;;;;;16.75;12.25;;;;;;;;4978141;28;61829;-81
2024/01/16 12:17:56;;;;;;;;;15.75;10.75;;;;;;;;4978928;28;61797;-79
2024/01/16 12:20:23;;;;;;;;;17.00;12.75;;;;;;;;4977252;28;62133;-79
2024/01/16 12:22:54;;;;;;;;;18.75;12.75;;;;;;;;4977746;28;61818;-81
2024/01/16 12:25:20;;;;;;;;;11.00;6.50;;;;;;;;4977257;28;62121;-81
2024/01/16 12:27:46;;;;;;;;;22.50;17.25;;;;;;;;4977374;28;61805;-80
2024/01/16 12:30:12;;;;;;;;;17.75;16.75;;;;;;;;4979218;28;62032;-81
2024/01/16 12:32:38;;;;;;;;;20.25;16.75;;;;;;;;4976905;28;63957;-79
2024/01/16 12:35:04;;;;;;;;;19.00;17.00;;;;;;;;4978412;28;61874;-80
2024/01/16 12:37:29;;;;;;;;;22.50;19.00;;;;;;;;4977216;28;62112;-79
2024/01/16 12:39:57;;;;;;;;;15.50;12.25;;;;;;;;4978779;28;62143;-79
2024/01/16 12:42:24;;;;;;;;;13.00;11.00;;;;;;;;4973893;28;63905;-81
2024/01/16 12:44:50;;;;;;;;;16.50;13.00;;;;;;;;4978950;28;62694;-80
2024/01/16 12:47:15;;;;;;;;;15.75;15.25;;;;;;;;4978151;28;61989;-79
2024/01/16 12:49:42;;;;;;;;;20.00;16.50;;;;;;;;4979280;28;61850;-81
2024/01/16 12:52:14;;;;;;;;;17.50;14.00;;;;;;;;4978309;28;61908;-81
2024/01/16 12:54:40;;;;;;;;;16.50;16.50;;;;;;;;4984734;28;62015;-82
2024/01/16 12:57:06;;;;;;;;;15.00;15.00;;;;;;;;4979103;28;61828;-83
2024/01/16 12:59:31;;;;;;;;;21.00;16.00;;;;;;;;4979475;28;61749;-82
2024/01/16 13:01:56;;;;;;;;;19.75;16.50;;;;;;;;4978879;28;61983;-81
2024/01/16 13:04:21;;;;;;;;;21.25;19.75;;;;;;;;4981056;28;61861;-83
2024/01/16 13:06:48;;;;;;;;;16.75;15.00;;;;;;;;4980184;28;63469;-82
2024/01/16 13:09:18;;;;;;;;;16.50;15.50;;;;;;;;4979697;28;61932;-83
2024/01/16 13:11:47;;;;;;;;;15.50;14.25;;;;;;;;4981223;28;61941;-81
2024/01/16 13:14:13;;;;;;;;;22.25;20.25;;;;;;;;4980173;28;61855;-81
2024/01/16 13:16:38;;;;;;;;;20.75;18.00;;;;;;;;4981509;28;61766;-81
2024/01/16 13:19:05;;;;;;;;;19.75;16.00;;;;;;;;4980711;28;61802;-83
2024/01/16 13:21:30;;;;;;;;;22.00;17.00;;;;;;;;4980719;28;61885;-81
2024/01/16 13:23:56;;;;;;;;;16.75;16.25;;;;;;;;4980929;28;62102;-83
2024/01/16 13:26:21;;;;;;;;;20.50;19.25;;;;;;;;4982498;28;61864;-84
2024/01/16 13:28:47;;;;;;;;;27.00;20.50;;;;;;;;4981394;28;61725;-82
2024/01/16 13:31:13;;;;;;;;;20.50;15.75;;;;;;;;4979295;28;64694;-82
2024/01/16 13:33:38;;;;;;;;;22.25;18.50;;;;;;;;4979322;28;61820;-81
2024/01/16 13:36:04;;;;;;;;;22.50;19.50;;;;;;;;4981158;28;61695;-83
2024/01/16 13:38:30;;;;;;;;;16.25;15.75;;;;;;;;4979889;28;61786;-86
2024/01/16 13:40:55;;;;;;;;;19.75;19.75;;;;;;;;4988059;28;63480;-86
2024/01/16 13:43:21;;;;;;;;;21.75;19.00;;;;;;;;4980819;28;62040;-87
2024/01/16 13:45:49;;;;;;;;;18.00;17.75;;;;;;;;4980955;28;61944;-87
2024/01/16 13:48:15;;;;;;;;;16.00;14.75;;;;;;;;4981272;28;61797;-87
2024/01/16 13:50:40;;;;;;;;;16.75;13.75;;;;;;;;4981154;28;62872;-85
2024/01/16 13:53:06;;;;;;;;;16.00;14.75;;;;;;;;4985644;28;62044;-87
2024/01/16 13:55:31;;;;;;;;;22.75;17.50;;;;;;;;4963851;28;61871;-87
2024/01/16 13:57:58;;;;;;;;;22.25;19.00;;;;;;;;4967334;28;61920;-87
2024/01/16 14:00:23;;;;;;;;;20.50;17.00;;;;;;;;4985152;27;61859;-86
2024/01/16 14:02:48;;;;;;;;;24.25;20.50;;;;;;;;5000528;28;62401;-86
2024/01/16 14:05:15;;;;;;;;;20.25;18.50;;;;;;;;5000421;27;61679;-86
2024/01/16 14:07:41;;;;;;;;;24.50;17.00;;;;;;;;4996312;27;61980;-87
2024/01/16 14:10:12;;;;;;;;;22.50;18.50;;;;;;;;4979607;28;61674;-86